createdAt,value
2019-03-13T00:00:14.165Z,2.77
2019-03-13T00:02:40.546Z,2.83
2019-03-13T00:05:07.514Z,2.45
2019-03-13T00:07:33.679Z,2.47
2019-03-13T00:09:59.781Z,2.92
2019-03-13T00:12:25.942Z,2.85
2019-03-13T00:14:52.257Z,2.35
2019-03-13T00:17:18.327Z,2.65
2019-03-13T00:19:44.623Z,2.87
2019-03-13T00:22:10.804Z,2.65
2019-03-13T00:24:36.969Z,3.00
2019-03-13T00:27:03.056Z,3.08
2019-03-13T00:29:29.174Z,2.50
2019-03-13T00:31:55.361Z,2.10
2019-03-13T00:34:21.624Z,2.75
2019-03-13T00:36:48.004Z,2.70
2019-03-13T00:39:14.084Z,2.50
2019-03-13T00:41:40.289Z,2.77
2019-03-13T00:44:06.368Z,2.72
2019-03-13T00:46:32.450Z,2.60
2019-03-13T00:48:58.552Z,2.42
2019-03-13T00:51:24.635Z,2.47
2019-03-13T00:53:50.741Z,2.30
2019-03-13T00:56:16.835Z,2.95
2019-03-13T00:58:42.900Z,2.90
2019-03-13T01:01:10.885Z,2.70
2019-03-13T01:03:38.897Z,2.50
2019-03-13T01:06:09.965Z,3.00
2019-03-13T01:08:36.073Z,2.87
2019-03-13T01:11:02.290Z,2.37
2019-03-13T01:13:28.456Z,2.02
2019-03-13T01:15:54.635Z,2.30
2019-03-13T01:18:20.687Z,2.20
2019-03-13T01:20:46.784Z,2.72
2019-03-13T01:23:12.831Z,2.65
2019-03-13T01:25:38.951Z,2.62
2019-03-13T01:28:05.105Z,2.55
2019-03-13T01:30:33.390Z,2.70
2019-03-13T01:33:01.381Z,2.50
2019-03-13T01:35:29.406Z,2.72
2019-03-13T01:37:55.514Z,3.37
2019-03-13T01:40:21.684Z,2.87
2019-03-13T01:42:47.866Z,2.70
2019-03-13T01:45:14.126Z,2.00
2019-03-13T01:47:40.206Z,2.50
2019-03-13T01:50:08.883Z,3.20
2019-03-13T01:52:35.075Z,2.90
2019-03-13T01:55:01.260Z,2.27
2019-03-13T01:57:27.724Z,2.67
2019-03-13T01:59:53.805Z,2.70
2019-03-13T02:02:19.900Z,2.20
2019-03-13T02:04:45.981Z,2.58
2019-03-13T02:07:12.051Z,2.75
2019-03-13T02:09:38.147Z,2.80
2019-03-13T02:12:04.237Z,2.50
2019-03-13T02:14:30.316Z,3.10
2019-03-13T02:16:56.379Z,2.83
2019-03-13T02:19:22.476Z,2.52
2019-03-13T02:21:48.551Z,2.35
2019-03-13T02:24:14.644Z,2.50
2019-03-13T02:26:40.713Z,2.85
2019-03-13T02:29:06.825Z,3.10
2019-03-13T02:31:32.903Z,2.80
2019-03-13T02:33:59.067Z,2.10
2019-03-13T02:36:25.152Z,3.05
2019-03-13T02:38:51.249Z,3.00
2019-03-13T02:41:17.329Z,3.85
2019-03-13T02:43:43.415Z,2.90
2019-03-13T02:46:09.607Z,2.40
2019-03-13T02:48:35.670Z,2.30
2019-03-13T02:51:01.759Z,2.55
2019-03-13T02:53:28.044Z,2.47
2019-03-13T02:55:54.099Z,3.10
2019-03-13T02:58:20.289Z,3.08
2019-03-13T03:01:05.137Z,3.00
2019-03-13T03:03:33.515Z,2.70
2019-03-13T03:06:00.484Z,2.70
2019-03-13T03:08:26.590Z,3.10
2019-03-13T03:10:52.758Z,3.17
2019-03-13T03:13:18.945Z,3.08
2019-03-13T03:15:45.048Z,2.92
2019-03-13T03:18:11.209Z,3.02
2019-03-13T03:20:37.292Z,3.10
2019-03-13T03:23:03.375Z,3.25
2019-03-13T03:25:29.454Z,3.05
2019-03-13T03:27:55.529Z,3.58
2019-03-13T03:30:23.032Z,4.08
2019-03-13T03:32:49.513Z,3.30
2019-03-13T03:35:15.855Z,3.20
2019-03-13T03:37:42.172Z,3.33
2019-03-13T03:40:11.557Z,3.22
2019-03-13T03:42:37.642Z,3.60
2019-03-13T03:45:06.535Z,3.30
2019-03-13T03:47:32.685Z,3.33
2019-03-13T03:49:58.754Z,3.45
2019-03-13T03:52:24.880Z,3.58
2019-03-13T03:54:51.056Z,3.30
2019-03-13T03:57:17.153Z,3.77
2019-03-13T03:59:43.228Z,4.35
2019-03-13T04:02:09.311Z,4.30
2019-03-13T04:04:35.398Z,3.72
2019-03-13T04:07:01.772Z,3.42
2019-03-13T04:09:27.979Z,3.92
2019-03-13T04:11:54.135Z,3.65
2019-03-13T04:14:20.242Z,3.55
2019-03-13T04:16:46.321Z,4.15
2019-03-13T04:19:12.642Z,3.60
2019-03-13T04:21:38.730Z,2.45
2019-03-13T04:24:05.104Z,1.90
2019-03-13T04:26:31.185Z,1.47
2019-03-13T04:28:57.282Z,1.35
2019-03-13T04:31:23.383Z,1.10
2019-03-13T04:33:49.470Z,1.20
2019-03-13T04:36:15.545Z,1.10
2019-03-13T04:38:41.666Z,1.02
2019-03-13T04:41:07.736Z,1.00
2019-03-13T04:43:33.832Z,1.15
2019-03-13T04:46:00.009Z,1.00
2019-03-13T04:48:26.080Z,0.90
2019-03-13T04:50:52.170Z,1.10
2019-03-13T04:53:18.251Z,1.17
2019-03-13T04:55:44.313Z,1.12
2019-03-13T04:58:10.403Z,1.00
2019-03-13T05:00:37.275Z,0.90
2019-03-13T05:03:03.471Z,1.00
2019-03-13T05:05:43.751Z,1.27
2019-03-13T05:08:13.059Z,1.10
2019-03-13T05:10:39.837Z,1.02
2019-03-13T05:13:05.980Z,1.20
2019-03-13T05:15:32.212Z,0.90
2019-03-13T05:17:58.294Z,0.90
2019-03-13T05:20:24.411Z,0.78
2019-03-13T05:22:50.489Z,0.82
2019-03-13T05:25:19.092Z,0.70
2019-03-13T05:27:44.586Z,0.70
2019-03-13T05:30:11.844Z,0.90
2019-03-13T05:32:37.924Z,0.60
2019-03-13T05:35:05.230Z,0.80
2019-03-13T05:37:31.301Z,0.80
2019-03-13T05:39:57.420Z,0.80
2019-03-13T05:42:23.497Z,0.70
2019-03-13T05:44:49.571Z,1.02
2019-03-13T05:47:15.673Z,0.70
2019-03-13T05:49:41.864Z,0.70
2019-03-13T05:52:08.057Z,0.75
2019-03-13T05:54:34.165Z,1.00
2019-03-13T05:57:00.229Z,0.90
2019-03-13T05:59:26.293Z,0.70
2019-03-13T06:01:52.381Z,1.00
2019-03-13T06:04:18.482Z,0.98
2019-03-13T06:06:44.565Z,0.70
2019-03-13T06:09:10.622Z,0.95
2019-03-13T06:11:36.700Z,0.95
2019-03-13T06:14:02.808Z,0.80
2019-03-13T06:16:28.998Z,0.80
2019-03-13T06:18:55.085Z,0.80
2019-03-13T06:21:21.193Z,0.85
2019-03-13T06:23:48.242Z,1.10
2019-03-13T06:26:14.529Z,1.05
2019-03-13T06:28:40.729Z,0.90
2019-03-13T06:31:06.829Z,0.70
2019-03-13T06:33:33.046Z,1.60
2019-03-13T06:35:59.219Z,0.90
2019-03-13T06:38:25.386Z,0.80
2019-03-13T06:40:51.587Z,1.00
2019-03-13T06:43:17.775Z,0.90
2019-03-13T06:45:44.011Z,0.85
2019-03-13T06:48:10.195Z,0.98
2019-03-13T06:50:36.389Z,0.82
2019-03-13T06:53:02.585Z,1.05
2019-03-13T06:55:28.704Z,0.98
2019-03-13T06:57:54.906Z,0.98
2019-03-13T07:00:37.301Z,1.00
2019-03-13T07:03:05.552Z,1.00
2019-03-13T07:05:42.839Z,1.10
2019-03-13T07:08:29.264Z,0.98
2019-03-13T07:10:57.369Z,0.93
2019-03-13T07:13:37.430Z,1.10
2019-03-13T07:16:11.301Z,0.90
2019-03-13T07:18:39.373Z,1.10
2019-03-13T07:21:07.485Z,0.98
2019-03-13T07:23:41.403Z,0.90
2019-03-13T07:26:15.449Z,1.00
2019-03-13T07:28:52.825Z,0.90
2019-03-13T07:31:20.798Z,1.12
2019-03-13T07:33:48.926Z,0.80
2019-03-13T07:36:23.175Z,0.75
2019-03-13T07:38:53.740Z,0.93
2019-03-13T07:41:24.806Z,0.82
2019-03-13T07:43:58.560Z,0.93
2019-03-13T07:46:42.020Z,1.00
2019-03-13T07:49:09.997Z,0.80
2019-03-13T07:51:47.240Z,0.75
2019-03-13T07:54:31.948Z,1.02
2019-03-13T07:57:08.771Z,1.15
2019-03-13T07:59:53.376Z,1.10
2019-03-13T08:02:21.472Z,1.40
2019-03-13T08:05:04.577Z,1.00
2019-03-13T08:07:32.684Z,1.10
2019-03-13T08:10:09.475Z,1.00
2019-03-13T08:12:40.246Z,1.70
2019-03-13T08:15:28.580Z,1.50
2019-03-13T08:18:02.558Z,1.10
2019-03-13T08:20:33.537Z,1.90
2019-03-13T08:23:07.581Z,1.10
2019-03-13T08:25:35.645Z,1.20
2019-03-13T08:28:06.441Z,1.07
2019-03-13T08:30:43.320Z,1.00
2019-03-13T08:33:17.067Z,1.20
2019-03-13T08:35:48.125Z,1.22
2019-03-13T08:38:19.236Z,1.20
2019-03-13T08:41:02.561Z,1.12
2019-03-13T08:43:49.006Z,1.00
2019-03-13T08:46:33.948Z,1.17
2019-03-13T08:49:04.764Z,0.98
2019-03-13T08:51:45.051Z,0.90
2019-03-13T08:54:13.128Z,1.10
2019-03-13T08:56:59.312Z,1.40
2019-03-13T08:59:35.958Z,2.15
2019-03-13T09:02:04.090Z,1.00
2019-03-13T09:04:38.105Z,1.27
2019-03-13T09:07:15.099Z,1.50
2019-03-13T09:09:48.961Z,2.95
2019-03-13T09:12:16.998Z,0.90
2019-03-13T09:15:01.889Z,0.85
2019-03-13T09:17:45.040Z,3.15
2019-03-13T09:20:25.164Z,1.02
2019-03-13T09:23:11.554Z,3.33
2019-03-13T09:25:42.106Z,2.02
2019-03-13T09:28:10.133Z,1.52
2019-03-13T09:30:44.468Z,1.72
2019-03-13T09:33:14.987Z,1.52
2019-03-13T09:35:45.981Z,1.00
2019-03-13T09:38:13.979Z,1.00
2019-03-13T09:40:58.655Z,1.00
2019-03-13T09:43:26.656Z,0.98
2019-03-13T09:45:54.613Z,0.80
2019-03-13T09:48:39.343Z,0.78
2019-03-13T09:51:16.355Z,0.65
2019-03-13T09:53:44.436Z,0.70
2019-03-13T09:56:12.470Z,0.80
2019-03-13T09:58:55.716Z,0.55
2019-03-13T10:01:23.715Z,0.60
2019-03-13T10:03:54.508Z,0.50
2019-03-13T10:06:34.416Z,0.70
2019-03-13T10:09:11.457Z,0.62
2019-03-13T10:11:45.546Z,0.70
2019-03-13T10:14:22.352Z,0.60
2019-03-13T10:16:50.534Z,0.60
2019-03-13T10:19:33.644Z,0.70
2019-03-13T10:22:16.820Z,0.62
2019-03-13T10:24:59.900Z,0.60
2019-03-13T10:27:44.581Z,0.65
2019-03-13T10:30:20.035Z,0.60
2019-03-13T10:32:50.563Z,0.90
2019-03-13T10:35:21.345Z,0.90
2019-03-13T10:37:58.272Z,1.95
2019-03-13T10:40:43.070Z,2.30
2019-03-13T10:43:27.819Z,2.08
2019-03-13T10:46:04.714Z,1.50
2019-03-13T10:48:35.879Z,1.30
2019-03-13T10:51:06.752Z,1.35
2019-03-13T10:53:40.564Z,1.50
2019-03-13T10:56:17.356Z,2.55
2019-03-13T10:58:45.400Z,1.10
2019-03-13T11:01:13.404Z,0.90
2019-03-13T11:03:43.925Z,1.20
2019-03-13T11:06:27.000Z,1.22
2019-03-13T11:09:11.992Z,1.00
2019-03-13T11:11:42.963Z,1.57
2019-03-13T11:14:29.142Z,0.80
2019-03-13T11:17:14.016Z,0.70
2019-03-13T11:19:42.010Z,1.10
2019-03-13T11:22:09.983Z,0.70
2019-03-13T11:24:38.071Z,0.80
2019-03-13T11:27:11.887Z,0.95
2019-03-13T11:29:42.802Z,0.90
2019-03-13T11:32:17.001Z,0.72
2019-03-13T11:34:45.055Z,0.60
2019-03-13T11:37:13.057Z,0.57
2019-03-13T11:39:46.893Z,0.60
2019-03-13T11:42:14.991Z,0.80
2019-03-13T11:44:58.069Z,0.70
2019-03-13T11:47:42.207Z,0.60
2019-03-13T11:50:25.687Z,0.80
2019-03-13T11:53:02.584Z,1.10
2019-03-13T11:55:30.719Z,1.20
2019-03-13T11:58:07.471Z,0.80
2019-03-13T12:00:52.695Z,1.40
2019-03-13T12:03:37.388Z,1.27
2019-03-13T12:06:08.312Z,1.25
2019-03-13T12:08:51.111Z,1.17
2019-03-13T12:11:31.164Z,1.47
2019-03-13T12:13:59.154Z,1.02
2019-03-13T12:16:29.890Z,1.27
2019-03-13T12:19:14.436Z,1.02
2019-03-13T12:21:42.553Z,1.30
2019-03-13T12:24:10.566Z,0.80
2019-03-13T12:26:38.653Z,0.80
2019-03-13T12:29:23.306Z,0.90
2019-03-13T12:31:57.252Z,0.90
2019-03-13T12:34:42.177Z,1.07
2019-03-13T12:37:16.040Z,1.15
2019-03-13T12:40:02.192Z,1.55
2019-03-13T12:42:48.337Z,0.93
2019-03-13T12:45:32.884Z,1.35
2019-03-13T12:48:00.901Z,0.90
2019-03-13T12:50:34.018Z,0.70
2019-03-13T12:53:04.079Z,0.72
2019-03-13T12:55:34.826Z,0.80
2019-03-13T12:58:19.201Z,0.70
2019-03-13T13:00:56.361Z,1.10
2019-03-13T13:03:39.442Z,1.00
2019-03-13T13:06:22.831Z,1.02
2019-03-13T13:09:00.056Z,0.88
2019-03-13T13:11:28.172Z,0.85
2019-03-13T13:13:58.025Z,0.57
2019-03-13T13:16:26.213Z,4.05
2019-03-13T13:18:52.620Z,1.27
2019-03-13T13:21:18.850Z,2.52
2019-03-13T13:23:45.038Z,5.15
2019-03-13T13:26:11.260Z,2.25
2019-03-13T13:28:37.368Z,1.90
2019-03-13T13:31:03.544Z,3.35
2019-03-13T13:33:29.649Z,0.88
2019-03-13T13:35:55.953Z,0.72
2019-03-13T13:38:22.156Z,0.70
2019-03-13T13:40:48.343Z,0.70
2019-03-13T13:43:14.492Z,0.80
2019-03-13T13:45:43.765Z,0.82
2019-03-13T13:48:09.942Z,0.80
2019-03-13T13:50:36.016Z,1.10
2019-03-13T13:53:02.118Z,0.90
2019-03-13T13:55:28.199Z,0.70
2019-03-13T13:57:54.295Z,0.75
2019-03-13T14:00:20.388Z,2.75
2019-03-13T14:02:46.481Z,0.85
2019-03-13T14:05:12.677Z,2.10
2019-03-13T14:07:39.009Z,1.52
2019-03-13T14:10:12.965Z,1.80
2019-03-13T14:12:39.039Z,0.95
2019-03-13T14:15:12.549Z,1.20
2019-03-13T14:17:38.656Z,1.07
2019-03-13T14:20:07.689Z,2.52
2019-03-13T14:22:33.750Z,1.00
2019-03-13T14:24:59.823Z,1.10
2019-03-13T14:27:25.908Z,0.90
2019-03-13T14:29:52.076Z,1.50
2019-03-13T14:32:18.229Z,1.55
2019-03-13T14:34:44.364Z,2.62
2019-03-13T14:37:10.524Z,1.10
2019-03-13T14:39:36.620Z,1.17
2019-03-13T14:42:02.905Z,0.80
2019-03-13T14:44:29.085Z,0.90
2019-03-13T14:46:55.175Z,0.90
2019-03-13T14:49:21.293Z,1.37
2019-03-13T14:51:47.384Z,1.57
2019-03-13T14:54:13.501Z,1.10
2019-03-13T14:56:39.653Z,1.12
2019-03-13T14:59:05.761Z,2.30
2019-03-13T15:01:31.839Z,3.97
2019-03-13T15:03:57.943Z,1.32
2019-03-13T15:06:24.085Z,0.70
2019-03-13T15:08:50.167Z,0.90
2019-03-13T15:11:16.293Z,0.88
2019-03-13T15:13:42.387Z,1.10
2019-03-13T15:16:08.487Z,0.80
2019-03-13T15:18:34.684Z,0.98
2019-03-13T15:21:00.885Z,1.00
2019-03-13T15:23:27.163Z,1.00
2019-03-13T15:25:53.253Z,1.20
2019-03-13T15:28:19.312Z,1.17
2019-03-13T15:30:45.410Z,0.90
2019-03-13T15:33:11.481Z,0.90
2019-03-13T15:35:37.736Z,0.98
2019-03-13T15:38:07.328Z,1.00
2019-03-13T15:40:33.472Z,1.40
2019-03-13T15:42:59.547Z,0.80
2019-03-13T15:45:30.461Z,1.00
2019-03-13T15:47:56.659Z,0.90
2019-03-13T15:50:22.924Z,0.70
2019-03-13T15:52:49.010Z,1.52
2019-03-13T15:55:17.502Z,1.70
2019-03-13T15:57:43.646Z,1.75
2019-03-13T16:00:26.504Z,0.90
2019-03-13T16:02:55.416Z,0.80
2019-03-13T16:05:20.690Z,0.90
2019-03-13T16:07:47.378Z,1.50
2019-03-13T16:10:17.880Z,1.30
2019-03-13T16:12:43.940Z,0.82
2019-03-13T16:15:16.056Z,1.02
2019-03-13T16:17:42.341Z,1.10
2019-03-13T16:20:11.933Z,1.10
2019-03-13T16:22:38.830Z,0.80
2019-03-13T16:25:07.965Z,1.50
2019-03-13T16:27:34.742Z,1.00
2019-03-13T16:30:00.934Z,0.80
2019-03-13T16:32:27.113Z,1.00
2019-03-13T16:34:53.229Z,1.27
2019-03-13T16:37:22.346Z,1.05
2019-03-13T16:39:48.528Z,0.93
2019-03-13T16:42:14.685Z,1.32
2019-03-13T16:44:40.783Z,1.70
2019-03-13T16:47:06.887Z,1.05
2019-03-13T16:49:33.012Z,1.00
2019-03-13T16:51:59.097Z,1.00
2019-03-13T16:54:25.171Z,1.27
2019-03-13T16:56:51.261Z,1.45
2019-03-13T16:59:17.364Z,1.07
2019-03-13T17:01:43.628Z,1.22
2019-03-13T17:04:09.732Z,1.65
2019-03-13T17:06:35.803Z,2.80
2019-03-13T17:09:04.020Z,4.65
2019-03-13T17:11:30.096Z,4.70
2019-03-13T17:13:56.399Z,6.70
2019-03-13T17:16:22.796Z,6.15
2019-03-13T17:18:48.877Z,5.00
2019-03-13T17:21:14.996Z,2.45
2019-03-13T17:23:41.293Z,2.10
2019-03-13T17:26:07.486Z,2.90
2019-03-13T17:28:33.568Z,2.00
2019-03-13T17:30:59.683Z,2.45
2019-03-13T17:33:25.841Z,2.20
2019-03-13T17:35:51.976Z,1.77
2019-03-13T17:38:18.153Z,2.25
2019-03-13T17:40:44.359Z,1.77
2019-03-13T17:43:10.529Z,1.40
2019-03-13T17:45:36.716Z,1.77
2019-03-13T17:48:04.628Z,1.72
2019-03-13T17:50:30.730Z,1.75
2019-03-13T17:52:56.797Z,1.00
2019-03-13T17:55:23.824Z,0.80
2019-03-13T17:57:49.911Z,1.17
2019-03-13T18:00:26.989Z,1.17
2019-03-13T18:02:53.068Z,1.10
2019-03-13T18:05:19.132Z,1.27
2019-03-13T18:07:45.320Z,1.32
2019-03-13T18:10:14.841Z,1.60
2019-03-13T18:12:41.050Z,1.55
2019-03-13T18:15:08.816Z,2.33
2019-03-13T18:17:35.088Z,1.40
2019-03-13T18:20:01.609Z,1.62
2019-03-13T18:22:27.717Z,1.80
2019-03-13T18:24:53.867Z,1.47
2019-03-13T18:27:20.113Z,1.60
2019-03-13T18:29:46.181Z,1.60
2019-03-13T18:32:12.261Z,1.70
2019-03-13T18:34:39.345Z,1.70
2019-03-13T18:37:05.668Z,2.00
2019-03-13T18:39:31.739Z,1.65
2019-03-13T18:41:57.812Z,2.80
2019-03-13T18:44:23.916Z,1.30
2019-03-13T18:46:50.236Z,1.75
2019-03-13T18:49:16.551Z,1.65
2019-03-13T18:51:42.762Z,1.20
2019-03-13T18:54:08.857Z,1.30
2019-03-13T18:56:34.935Z,1.10
2019-03-13T18:59:01.137Z,1.00
2019-03-13T19:01:27.421Z,1.20
2019-03-13T19:03:53.619Z,1.20
2019-03-13T19:06:19.722Z,1.10
2019-03-13T19:08:45.881Z,1.25
2019-03-13T19:11:12.084Z,1.27
2019-03-13T19:13:38.213Z,1.50
2019-03-13T19:16:04.593Z,1.37
2019-03-13T19:18:31.151Z,1.30
2019-03-13T19:20:58.699Z,1.75
2019-03-13T19:23:25.187Z,1.12
2019-03-13T19:25:51.476Z,1.55
2019-03-13T19:28:17.556Z,2.20
2019-03-13T19:30:43.850Z,1.80
2019-03-13T19:33:10.032Z,2.22
2019-03-13T19:35:37.016Z,1.67
2019-03-13T19:38:06.527Z,1.50
2019-03-13T19:40:32.724Z,1.30
2019-03-13T19:42:58.894Z,1.55
2019-03-13T19:45:28.281Z,1.90
2019-03-13T19:47:54.373Z,1.25
2019-03-13T19:50:20.634Z,1.35
2019-03-13T19:52:47.555Z,1.20
2019-03-13T19:55:14.477Z,1.40
2019-03-13T19:57:40.960Z,1.60
2019-03-13T20:00:12.227Z,1.45
2019-03-13T20:02:38.428Z,1.40
2019-03-13T20:05:07.425Z,2.05
2019-03-13T20:07:34.435Z,1.42
2019-03-13T20:10:00.653Z,1.27
2019-03-13T20:12:26.764Z,1.20
2019-03-13T20:14:52.853Z,1.40
2019-03-13T20:17:19.036Z,1.12
2019-03-13T20:19:45.230Z,1.30
2019-03-13T20:22:11.465Z,1.00
2019-03-13T20:24:38.765Z,1.40
2019-03-13T20:27:05.224Z,1.10
2019-03-13T20:29:31.451Z,1.32
2019-03-13T20:31:57.725Z,1.20
2019-03-13T20:34:24.033Z,1.47
2019-03-13T20:36:50.213Z,1.25
2019-03-13T20:39:16.385Z,1.30
2019-03-13T20:41:42.505Z,1.30
2019-03-13T20:44:08.605Z,1.12
2019-03-13T20:46:34.683Z,1.02
2019-03-13T20:49:00.830Z,1.10
2019-03-13T20:51:27.043Z,1.22
2019-03-13T20:53:53.237Z,1.12
2019-03-13T20:56:19.437Z,1.07
2019-03-13T20:58:45.513Z,1.10
2019-03-13T21:01:11.717Z,1.17
2019-03-13T21:03:37.809Z,1.00
2019-03-13T21:06:03.924Z,0.90
2019-03-13T21:08:30.092Z,1.20
2019-03-13T21:10:56.472Z,1.05
2019-03-13T21:13:22.629Z,1.20
2019-03-13T21:15:48.703Z,1.20
2019-03-13T21:18:14.851Z,1.50
2019-03-13T21:20:40.911Z,1.65
2019-03-13T21:23:07.080Z,1.40
2019-03-13T21:25:33.215Z,0.90
2019-03-13T21:27:59.433Z,1.70
2019-03-13T21:30:26.640Z,0.90
2019-03-13T21:32:52.768Z,1.17
2019-03-13T21:35:19.017Z,1.12
2019-03-13T21:37:45.165Z,1.30
2019-03-13T21:40:13.678Z,1.25
2019-03-13T21:42:39.963Z,1.10
2019-03-13T21:45:07.727Z,1.45
2019-03-13T21:47:33.972Z,1.30
2019-03-13T21:50:00.126Z,1.12
2019-03-13T21:52:26.200Z,1.70
2019-03-13T21:54:52.381Z,1.70
2019-03-13T21:57:18.579Z,1.65
2019-03-13T21:59:44.671Z,1.55
2019-03-13T22:02:10.771Z,1.47
2019-03-13T22:04:36.885Z,1.40
2019-03-13T22:07:02.977Z,1.57
2019-03-13T22:09:29.145Z,1.47
2019-03-13T22:11:55.236Z,1.52
2019-03-13T22:14:21.341Z,1.30
2019-03-13T22:16:47.451Z,1.22
2019-03-13T22:19:13.606Z,1.35
2019-03-13T22:21:39.893Z,1.20
2019-03-13T22:24:06.076Z,1.45
2019-03-13T22:26:32.189Z,1.20
2019-03-13T22:28:58.396Z,1.45
2019-03-13T22:31:24.474Z,1.40
2019-03-13T22:33:50.707Z,1.20
2019-03-13T22:36:16.849Z,1.17
2019-03-13T22:38:42.903Z,1.30
2019-03-13T22:41:09.114Z,1.15
2019-03-13T22:43:35.271Z,1.27
2019-03-13T22:46:01.387Z,1.02
2019-03-13T22:48:27.578Z,1.15
2019-03-13T22:50:53.675Z,1.42
2019-03-13T22:53:19.772Z,1.15
2019-03-13T22:55:45.977Z,1.07
2019-03-13T22:58:12.136Z,1.10
2019-03-13T23:00:46.816Z,1.12
2019-03-13T23:03:14.476Z,1.25
2019-03-13T23:05:40.595Z,1.52
2019-03-13T23:08:06.792Z,1.50
2019-03-13T23:10:33.887Z,1.20
2019-03-13T23:13:00.076Z,1.40
2019-03-13T23:15:26.255Z,1.42
2019-03-13T23:17:52.347Z,1.65
2019-03-13T23:20:18.417Z,1.60
2019-03-13T23:22:44.536Z,1.50
2019-03-13T23:25:10.668Z,1.50
2019-03-13T23:27:36.850Z,1.80
2019-03-13T23:30:05.180Z,1.75
2019-03-13T23:32:31.250Z,1.60
2019-03-13T23:34:57.320Z,2.30
2019-03-13T23:37:23.427Z,1.95
2019-03-13T23:39:49.530Z,2.05
2019-03-13T23:42:15.734Z,1.85
2019-03-13T23:44:41.844Z,1.60
2019-03-13T23:47:07.935Z,2.02
2019-03-13T23:49:34.011Z,1.67
2019-03-13T23:52:02.780Z,2.10
2019-03-13T23:54:28.228Z,1.85
2019-03-13T23:56:54.296Z,1.60
2019-03-13T23:59:20.421Z,1.85
